createdAt,value
2019-01-16T00:00:42.589Z,46.21
2019-01-16T00:01:39.642Z,46.21
2019-01-16T00:02:36.640Z,46.20
2019-01-16T00:03:33.700Z,46.18
2019-01-16T00:04:30.764Z,46.19
2019-01-16T00:05:27.832Z,46.17
2019-01-16T00:06:24.922Z,46.65
2019-01-16T00:07:21.962Z,45.86
2019-01-16T00:08:19.035Z,46.14
2019-01-16T00:09:16.110Z,46.12
2019-01-16T00:10:13.208Z,46.36
2019-01-16T00:11:10.244Z,46.12
2019-01-16T00:12:07.317Z,46.11
2019-01-16T00:13:04.355Z,46.90
2019-01-16T00:14:01.428Z,45.95
2019-01-16T00:14:58.505Z,46.22
2019-01-16T00:15:55.552Z,46.45
2019-01-16T00:16:52.667Z,46.06
2019-01-16T00:17:49.715Z,46.05
2019-01-16T00:18:46.766Z,46.03
2019-01-16T00:19:43.826Z,45.76
2019-01-16T00:20:41.890Z,46.03
2019-01-16T00:21:38.053Z,46.00
2019-01-16T00:22:35.049Z,46.01
2019-01-16T00:23:32.085Z,46.79
2019-01-16T00:24:29.154Z,45.99
2019-01-16T00:25:26.212Z,45.96
2019-01-16T00:26:23.307Z,45.68
2019-01-16T00:27:20.413Z,45.99
2019-01-16T00:28:17.422Z,45.95
2019-01-16T00:29:14.475Z,45.96
2019-01-16T00:30:11.551Z,46.44
2019-01-16T00:31:08.605Z,45.95
2019-01-16T00:32:05.676Z,45.93
2019-01-16T00:33:02.757Z,45.94
2019-01-16T00:33:59.850Z,45.91
2019-01-16T00:34:56.886Z,45.91
2019-01-16T00:35:53.938Z,45.54
2019-01-16T00:36:51.015Z,46.00
2019-01-16T00:37:48.089Z,46.08
2019-01-16T00:38:45.136Z,45.88
2019-01-16T00:39:42.206Z,45.87
2019-01-16T00:40:39.302Z,45.77
2019-01-16T00:41:36.351Z,45.86
2019-01-16T00:42:33.435Z,45.60
2019-01-16T00:43:30.662Z,45.85
2019-01-16T00:44:27.581Z,45.51
2019-01-16T00:45:24.617Z,45.84
2019-01-16T00:46:21.665Z,46.27
2019-01-16T00:47:18.739Z,45.82
2019-01-16T00:48:15.799Z,45.77
2019-01-16T00:49:12.954Z,45.81
2019-01-16T00:50:09.946Z,45.34
2019-01-16T00:51:07.001Z,46.23
2019-01-16T00:52:04.066Z,45.50
2019-01-16T00:53:01.124Z,46.15
2019-01-16T00:53:58.228Z,45.80
2019-01-16T00:54:55.295Z,46.08
2019-01-16T00:55:52.323Z,45.44
2019-01-16T00:56:49.392Z,45.76
2019-01-16T00:57:46.456Z,45.94
2019-01-16T00:58:43.527Z,45.76
2019-01-16T00:59:40.625Z,45.74
2019-01-16T01:00:37.664Z,45.34
2019-01-16T01:01:34.957Z,45.75
2019-01-16T01:02:31.808Z,46.05
2019-01-16T01:03:28.851Z,45.73
2019-01-16T01:04:25.943Z,45.63
2019-01-16T01:05:23.015Z,45.71
2019-01-16T01:06:20.055Z,45.25
2019-01-16T01:07:17.125Z,45.58
2019-01-16T01:08:15.186Z,45.26
2019-01-16T01:09:11.257Z,45.21
2019-01-16T01:10:08.309Z,45.69
2019-01-16T01:11:05.385Z,45.44
2019-01-16T01:12:03.444Z,45.74
2019-01-16T01:12:59.509Z,45.68
2019-01-16T01:13:56.581Z,45.67
2019-01-16T01:14:53.651Z,45.68
2019-01-16T01:15:50.723Z,45.66
2019-01-16T01:16:47.810Z,45.67
2019-01-16T01:17:44.847Z,45.67
2019-01-16T01:18:42.909Z,45.66
2019-01-16T01:19:39.067Z,45.65
2019-01-16T01:20:36.037Z,45.67
2019-01-16T01:21:33.124Z,45.24
2019-01-16T01:22:30.172Z,45.67
2019-01-16T01:23:27.233Z,45.65
2019-01-16T01:24:24.375Z,45.64
2019-01-16T01:25:21.382Z,46.02
2019-01-16T01:26:18.438Z,45.65
2019-01-16T01:27:15.517Z,45.39
2019-01-16T01:28:12.568Z,45.62
2019-01-16T01:29:10.629Z,46.16
2019-01-16T01:30:06.701Z,45.95
2019-01-16T01:31:03.785Z,45.61
2019-01-16T01:32:00.829Z,45.54
2019-01-16T01:32:57.894Z,45.03
2019-01-16T01:33:54.982Z,45.25
2019-01-16T01:34:52.030Z,45.35
2019-01-16T01:35:49.101Z,45.09
2019-01-16T01:36:46.157Z,45.62
2019-01-16T01:37:43.223Z,45.62
2019-01-16T01:38:40.316Z,45.54
2019-01-16T01:39:37.380Z,45.60
2019-01-16T01:40:34.422Z,45.61
2019-01-16T01:41:31.487Z,45.61
2019-01-16T01:42:28.558Z,45.60
2019-01-16T01:43:25.619Z,45.60
2019-01-16T01:44:22.689Z,45.86
2019-01-16T01:45:19.808Z,45.60
2019-01-16T01:46:16.828Z,45.60
2019-01-16T01:47:13.952Z,45.59
2019-01-16T01:48:10.960Z,45.58
2019-01-16T01:49:08.023Z,45.42
2019-01-16T01:50:05.099Z,46.02
2019-01-16T01:51:02.142Z,45.58
2019-01-16T01:51:59.211Z,45.27
2019-01-16T01:52:56.603Z,45.57
2019-01-16T01:53:53.349Z,45.33
2019-01-16T01:54:50.411Z,46.01
2019-01-16T01:55:47.609Z,45.74
2019-01-16T01:56:44.569Z,45.30
2019-01-16T01:57:41.658Z,45.69
2019-01-16T01:58:38.670Z,45.56
2019-01-16T01:59:35.742Z,45.61
2019-01-16T02:00:33.117Z,45.57
2019-01-16T02:01:29.877Z,45.54
2019-01-16T02:02:26.944Z,45.60
2019-01-16T02:03:25.004Z,45.55
2019-01-16T02:04:21.087Z,45.36
2019-01-16T02:05:18.171Z,45.55
2019-01-16T02:06:15.198Z,45.54
2019-01-16T02:07:12.365Z,45.54
2019-01-16T02:08:09.369Z,45.63
2019-01-16T02:09:06.424Z,45.53
2019-01-16T02:10:03.489Z,45.53
2019-01-16T02:11:00.531Z,45.49
2019-01-16T02:11:57.597Z,45.53
2019-01-16T02:12:54.671Z,45.76
2019-01-16T02:13:52.731Z,45.53
2019-01-16T02:14:48.795Z,45.53
2019-01-16T02:15:45.866Z,45.54
2019-01-16T02:16:43.920Z,45.52
2019-01-16T02:17:40.010Z,45.52
2019-01-16T02:18:37.055Z,45.65
2019-01-16T02:19:34.130Z,45.52
2019-01-16T02:20:31.237Z,44.80
2019-01-16T02:21:28.279Z,45.52
2019-01-16T02:22:25.334Z,45.52
2019-01-16T02:23:22.385Z,45.54
2019-01-16T02:24:19.609Z,45.52
2019-01-16T02:25:16.528Z,45.15
2019-01-16T02:26:13.636Z,45.52
2019-01-16T02:27:11.662Z,45.52
2019-01-16T02:28:07.745Z,45.75
2019-01-16T02:29:04.784Z,45.69
2019-01-16T02:30:01.861Z,45.61
2019-01-16T02:30:58.913Z,45.51
2019-01-16T02:31:55.982Z,45.51
2019-01-16T02:32:53.091Z,45.79
2019-01-16T02:33:50.149Z,45.95
2019-01-16T02:34:47.181Z,45.51
2019-01-16T02:35:44.237Z,45.29
2019-01-16T02:36:41.326Z,45.50
2019-01-16T02:37:39.381Z,45.48
2019-01-16T02:38:35.627Z,45.49
2019-01-16T02:39:32.539Z,45.11
2019-01-16T02:40:29.653Z,45.53
2019-01-16T02:41:26.641Z,45.50
2019-01-16T02:42:23.727Z,45.50
2019-01-16T02:43:20.785Z,45.51
2019-01-16T02:44:17.841Z,45.51
2019-01-16T02:45:14.903Z,45.50
2019-01-16T02:46:12.002Z,45.26
2019-01-16T02:47:09.035Z,45.51
2019-01-16T02:48:06.118Z,45.51
2019-01-16T02:49:03.164Z,45.54
2019-01-16T02:50:00.295Z,45.20
2019-01-16T02:50:57.302Z,45.51
2019-01-16T02:51:54.394Z,45.04
2019-01-16T02:52:51.462Z,45.68
2019-01-16T02:53:48.502Z,45.50
2019-01-16T02:54:45.567Z,45.51
2019-01-16T02:55:42.654Z,45.50
2019-01-16T02:56:39.751Z,45.51
2019-01-16T02:57:36.787Z,46.09
2019-01-16T02:58:33.835Z,45.51
2019-01-16T02:59:30.886Z,45.50
2019-01-16T03:00:27.966Z,45.51
2019-01-16T03:01:25.018Z,45.78
2019-01-16T03:02:22.111Z,45.10
2019-01-16T03:03:19.154Z,45.51
2019-01-16T03:04:16.227Z,45.47
2019-01-16T03:05:13.288Z,45.51
2019-01-16T03:06:10.351Z,45.91
2019-01-16T03:07:07.437Z,45.52
2019-01-16T03:08:04.498Z,46.40
2019-01-16T03:09:01.585Z,45.52
2019-01-16T03:09:58.614Z,45.49
2019-01-16T03:10:55.688Z,45.52
2019-01-16T03:11:53.748Z,45.52
2019-01-16T03:12:49.824Z,45.53
2019-01-16T03:13:46.920Z,45.52
2019-01-16T03:14:43.949Z,45.51
2019-01-16T03:15:41.015Z,45.50
2019-01-16T03:16:38.071Z,45.21
2019-01-16T03:17:35.139Z,44.99
2019-01-16T03:18:32.262Z,45.50
2019-01-16T03:19:29.326Z,45.50
2019-01-16T03:20:26.375Z,45.64
2019-01-16T03:21:23.411Z,45.81
2019-01-16T03:22:20.578Z,45.50
2019-01-16T03:23:17.550Z,45.50
2019-01-16T03:24:14.614Z,45.56
2019-01-16T03:25:11.698Z,45.48
2019-01-16T03:26:08.743Z,45.02
2019-01-16T03:27:05.802Z,45.33
2019-01-16T03:28:03.891Z,45.69
2019-01-16T03:28:59.961Z,45.48
2019-01-16T03:29:57.020Z,45.48
2019-01-16T03:30:54.105Z,45.49
2019-01-16T03:31:51.152Z,45.46
2019-01-16T03:32:48.223Z,45.50
2019-01-16T03:33:45.263Z,45.48
2019-01-16T03:34:42.343Z,45.50
2019-01-16T03:35:39.397Z,45.60
2019-01-16T03:36:36.486Z,45.48
2019-01-16T03:37:34.521Z,45.47
2019-01-16T03:38:30.601Z,45.87
2019-01-16T03:39:28.658Z,45.48
2019-01-16T03:40:24.736Z,45.35
2019-01-16T03:41:21.800Z,45.47
2019-01-16T03:42:18.863Z,45.46
2019-01-16T03:43:15.927Z,45.74
2019-01-16T03:44:12.992Z,45.46
2019-01-16T03:45:10.092Z,45.47
2019-01-16T03:46:07.127Z,46.10
2019-01-16T03:47:04.215Z,45.46
2019-01-16T03:48:01.249Z,45.48
2019-01-16T03:48:58.336Z,46.21
2019-01-16T03:49:55.409Z,45.46
2019-01-16T03:50:52.476Z,44.90
2019-01-16T03:51:49.533Z,45.47
2019-01-16T03:52:46.589Z,45.47
2019-01-16T03:53:43.671Z,45.32
2019-01-16T03:54:40.712Z,45.46
2019-01-16T03:55:38.173Z,45.47
2019-01-16T03:56:34.852Z,45.71
2019-01-16T03:57:31.915Z,45.47
2019-01-16T03:58:28.997Z,45.22
2019-01-16T03:59:26.053Z,45.08
2019-01-16T04:00:23.118Z,46.00
2019-01-16T04:01:20.239Z,45.46
2019-01-16T04:02:17.248Z,45.46
2019-01-16T04:03:14.317Z,45.71
2019-01-16T04:04:11.388Z,45.45
2019-01-16T04:05:08.442Z,45.46
2019-01-16T04:06:05.512Z,45.37
2019-01-16T04:07:02.632Z,45.45
2019-01-16T04:07:59.662Z,45.45
2019-01-16T04:08:56.706Z,45.44
2019-01-16T04:09:53.825Z,45.25
2019-01-16T04:10:50.846Z,45.44
2019-01-16T04:11:47.899Z,45.31
2019-01-16T04:12:44.971Z,45.44
2019-01-16T04:13:42.093Z,45.45
2019-01-16T04:14:39.100Z,45.45
2019-01-16T04:15:36.169Z,45.45
2019-01-16T04:16:33.229Z,45.73
2019-01-16T04:17:30.306Z,45.44
2019-01-16T04:18:28.422Z,45.45
2019-01-16T04:19:24.493Z,45.22
2019-01-16T04:20:22.782Z,45.42
2019-01-16T04:21:18.577Z,45.43
2019-01-16T04:22:15.652Z,45.42
2019-01-16T04:23:12.697Z,45.22
2019-01-16T04:24:09.762Z,45.46
2019-01-16T04:25:06.822Z,45.45
2019-01-16T04:26:03.892Z,45.35
2019-01-16T04:27:00.955Z,45.43
2019-01-16T04:27:58.024Z,45.45
2019-01-16T04:28:55.119Z,45.09
2019-01-16T04:29:52.211Z,45.46
2019-01-16T04:30:49.227Z,45.43
2019-01-16T04:31:46.293Z,45.45
2019-01-16T04:32:43.362Z,45.45
2019-01-16T04:33:40.456Z,45.43
2019-01-16T04:34:37.557Z,45.13
2019-01-16T04:35:34.620Z,45.44
2019-01-16T04:36:31.623Z,45.43
2019-01-16T04:37:28.729Z,45.30
2019-01-16T04:38:25.768Z,45.43
2019-01-16T04:39:22.821Z,45.42
2019-01-16T04:40:19.920Z,45.45
2019-01-16T04:41:16.950Z,45.46
2019-01-16T04:42:14.010Z,45.43
2019-01-16T04:43:11.090Z,45.18
2019-01-16T04:44:09.779Z,45.44
2019-01-16T04:45:05.208Z,45.43
2019-01-16T04:46:02.280Z,45.45
2019-01-16T04:46:59.379Z,45.46
2019-01-16T04:47:56.423Z,45.44
2019-01-16T04:48:53.633Z,45.43
2019-01-16T04:49:50.549Z,45.05
2019-01-16T04:50:47.602Z,45.44
2019-01-16T04:51:44.707Z,45.44
2019-01-16T04:52:41.737Z,45.45
2019-01-16T04:53:38.836Z,45.71
2019-01-16T04:54:35.870Z,45.62
2019-01-16T04:55:32.981Z,45.46
2019-01-16T04:56:30.014Z,45.47
2019-01-16T04:57:27.126Z,45.48
2019-01-16T04:58:24.138Z,45.49
2019-01-16T04:59:21.205Z,45.47
2019-01-16T05:00:18.262Z,45.71
2019-01-16T05:01:16.345Z,45.52
2019-01-16T05:02:12.413Z,45.73
2019-01-16T05:03:09.598Z,45.66
2019-01-16T05:04:06.532Z,45.45
2019-01-16T05:05:03.609Z,45.78
2019-01-16T05:06:00.671Z,45.45
2019-01-16T05:06:57.830Z,45.45
2019-01-16T05:07:55.122Z,45.45
2019-01-16T05:08:52.754Z,45.45
2019-01-16T05:09:48.962Z,46.00
2019-01-16T05:11:43.102Z,45.43
2019-01-16T05:12:40.128Z,45.44
2019-01-16T05:13:37.201Z,45.44
2019-01-16T05:14:34.260Z,45.44
2019-01-16T05:15:31.355Z,45.32
2019-01-16T05:16:28.400Z,45.10
2019-01-16T05:17:25.599Z,45.45
2019-01-16T05:18:22.866Z,45.44
2019-01-16T05:19:19.623Z,45.24
2019-01-16T05:20:16.718Z,45.44
2019-01-16T05:21:13.755Z,45.45
2019-01-16T05:22:11.680Z,45.44
2019-01-16T05:23:08.191Z,45.45
2019-01-16T05:24:04.931Z,45.42
2019-01-16T05:25:01.996Z,45.44
2019-01-16T05:25:59.083Z,45.43
2019-01-16T05:26:56.130Z,45.02
2019-01-16T05:27:53.210Z,45.66
2019-01-16T05:28:50.243Z,45.67
2019-01-16T05:29:47.307Z,45.45
2019-01-16T05:30:44.371Z,45.28
2019-01-16T05:31:41.604Z,45.44
2019-01-16T05:32:38.548Z,45.39
2019-01-16T05:33:35.585Z,45.45
2019-01-16T05:34:32.724Z,45.45
2019-01-16T05:35:29.715Z,45.76
2019-01-16T05:36:26.788Z,45.45
2019-01-16T05:37:23.849Z,45.93
2019-01-16T05:38:20.934Z,45.44
2019-01-16T05:39:17.988Z,45.44
2019-01-16T05:40:15.039Z,45.44
2019-01-16T05:41:12.095Z,45.44
2019-01-16T05:42:09.168Z,45.70
2019-01-16T05:43:06.269Z,45.45
2019-01-16T05:44:03.368Z,45.86
2019-01-16T05:45:00.390Z,45.55
2019-01-16T05:45:58.431Z,45.44
2019-01-16T05:46:54.502Z,45.44
2019-01-16T05:47:51.655Z,45.44
2019-01-16T05:48:48.643Z,45.42
2019-01-16T05:49:46.934Z,45.44
2019-01-16T05:50:42.767Z,45.50
2019-01-16T05:51:39.851Z,45.43
2019-01-16T05:52:37.901Z,45.45
2019-01-16T05:53:33.971Z,45.46
2019-01-16T05:54:31.027Z,45.44
2019-01-16T05:55:28.103Z,45.44
2019-01-16T05:56:25.188Z,45.43
2019-01-16T05:57:22.237Z,45.44
2019-01-16T05:58:19.340Z,45.43
2019-01-16T05:59:16.402Z,45.43
2019-01-16T06:00:13.606Z,45.43
2019-01-16T06:01:10.500Z,45.32
2019-01-16T06:02:07.587Z,45.44
2019-01-16T06:03:05.630Z,45.45
2019-01-16T06:04:01.691Z,45.44
2019-01-16T06:04:58.748Z,45.45
2019-01-16T06:05:55.823Z,45.45
2019-01-16T06:06:52.883Z,45.44
2019-01-16T06:07:50.008Z,45.45
2019-01-16T06:08:47.026Z,44.79
2019-01-16T06:09:45.098Z,45.43
2019-01-16T06:10:41.172Z,45.44
2019-01-16T06:11:38.214Z,45.44
2019-01-16T06:12:35.280Z,45.44
2019-01-16T06:13:32.344Z,45.44
2019-01-16T06:14:29.413Z,45.05
2019-01-16T06:15:26.682Z,45.44
2019-01-16T06:16:23.892Z,45.44
2019-01-16T06:17:20.639Z,45.13
2019-01-16T06:18:17.682Z,45.45
2019-01-16T06:19:14.746Z,45.45
2019-01-16T06:20:12.807Z,45.91
2019-01-16T06:21:08.874Z,45.56
2019-01-16T06:22:05.943Z,45.24
2019-01-16T06:23:03.051Z,45.40
2019-01-16T06:24:00.090Z,45.40
2019-01-16T06:24:57.143Z,45.37
2019-01-16T06:25:54.214Z,45.88
2019-01-16T06:26:52.272Z,45.37
2019-01-16T06:27:48.363Z,45.35
2019-01-16T06:28:45.394Z,45.35
2019-01-16T06:29:42.475Z,45.44
2019-01-16T06:30:39.571Z,45.33
2019-01-16T06:31:36.605Z,45.02
2019-01-16T06:32:33.702Z,45.33
2019-01-16T06:33:30.740Z,45.33
2019-01-16T06:34:27.803Z,45.52
2019-01-16T06:35:24.871Z,45.30
2019-01-16T06:36:21.932Z,45.30
2019-01-16T06:37:19.024Z,45.42
2019-01-16T06:38:16.073Z,45.18
2019-01-16T06:39:13.135Z,45.09
2019-01-16T06:40:10.223Z,45.29
2019-01-16T06:41:07.283Z,45.12
2019-01-16T06:42:04.325Z,45.55
2019-01-16T06:43:01.400Z,45.04
2019-01-16T06:43:59.608Z,45.35
2019-01-16T06:44:55.530Z,45.25
2019-01-16T06:45:52.597Z,45.24
2019-01-16T06:46:49.660Z,45.25
2019-01-16T06:47:46.717Z,44.93
2019-01-16T06:48:43.799Z,44.92
2019-01-16T06:49:40.868Z,45.00
2019-01-16T06:50:37.918Z,45.23
2019-01-16T06:51:35.008Z,45.47
2019-01-16T06:52:32.116Z,45.22
2019-01-16T06:53:29.120Z,45.25
2019-01-16T06:54:26.188Z,45.21
2019-01-16T06:55:23.255Z,45.19
2019-01-16T06:56:20.345Z,45.60
2019-01-16T06:57:17.433Z,45.21
2019-01-16T06:58:14.454Z,45.20
2019-01-16T06:59:11.524Z,45.20
2019-01-16T07:00:08.640Z,45.20
2019-01-16T07:01:05.644Z,45.20
2019-01-16T07:02:02.773Z,45.21
2019-01-16T07:02:59.783Z,45.21
2019-01-16T07:03:56.845Z,45.21
2019-01-16T07:04:54.050Z,44.98
2019-01-16T07:05:50.982Z,45.21
2019-01-16T07:06:48.941Z,45.62
2019-01-16T07:07:46.112Z,45.34
2019-01-16T07:08:42.173Z,45.28
2019-01-16T07:09:39.307Z,45.29
2019-01-16T07:10:36.311Z,45.40
2019-01-16T07:11:33.397Z,45.35
2019-01-16T07:12:30.436Z,45.31
2019-01-16T07:13:27.505Z,45.28
2019-01-16T07:14:24.581Z,45.17
2019-01-16T07:15:21.662Z,45.19
2019-01-16T07:16:18.709Z,45.17
2019-01-16T07:17:15.795Z,45.13
2019-01-16T07:18:13.835Z,44.82
2019-01-16T07:19:09.921Z,44.84
2019-01-16T07:20:09.935Z,44.69
2019-01-16T07:21:04.052Z,44.62
2019-01-16T07:22:01.354Z,45.01
2019-01-16T07:22:58.156Z,45.03
2019-01-16T07:23:55.235Z,45.00
2019-01-16T07:24:52.303Z,44.98
2019-01-16T07:25:49.384Z,45.33
2019-01-16T07:26:46.429Z,45.34
2019-01-16T07:27:44.523Z,44.93
2019-01-16T07:28:40.557Z,44.90
2019-01-16T07:29:37.641Z,44.91
2019-01-16T07:30:34.699Z,44.88
2019-01-16T07:31:31.761Z,46.10
2019-01-16T07:32:28.851Z,44.89
2019-01-16T07:33:25.956Z,44.88
2019-01-16T07:34:22.966Z,44.69
2019-01-16T07:35:20.023Z,44.87
2019-01-16T07:36:17.100Z,44.88
2019-01-16T07:37:14.182Z,44.86
2019-01-16T07:38:11.239Z,44.88
2019-01-16T07:39:08.279Z,44.91
2019-01-16T07:40:05.360Z,44.90
2019-01-16T07:41:02.420Z,44.91
2019-01-16T07:41:59.492Z,44.92
2019-01-16T07:42:56.571Z,44.91
2019-01-16T07:43:53.652Z,44.92
2019-01-16T07:44:50.695Z,44.95
2019-01-16T07:45:47.760Z,44.81
2019-01-16T07:46:44.944Z,44.95
2019-01-16T07:47:41.886Z,44.98
2019-01-16T07:48:39.280Z,45.02
2019-01-16T07:49:36.138Z,45.00
2019-01-16T07:50:33.076Z,45.01
2019-01-16T07:51:30.142Z,44.75
2019-01-16T07:52:27.241Z,44.88
2019-01-16T07:53:24.300Z,45.33
2019-01-16T07:54:21.334Z,45.01
2019-01-16T07:55:18.404Z,45.02
2019-01-16T07:56:15.582Z,45.02
2019-01-16T07:57:12.533Z,45.40
2019-01-16T07:58:09.660Z,45.01
2019-01-16T07:59:06.663Z,45.01
2019-01-16T08:00:03.764Z,45.03
2019-01-16T08:01:00.795Z,44.97
2019-01-16T08:01:57.868Z,44.98
2019-01-16T08:02:55.755Z,44.92
2019-01-16T08:03:52.016Z,44.91
2019-01-16T08:04:49.057Z,44.90
2019-01-16T08:05:46.122Z,44.88
2019-01-16T08:06:43.197Z,44.87
2019-01-16T08:07:40.326Z,44.86
2019-01-16T08:08:37.334Z,44.78
2019-01-16T08:09:34.402Z,44.84
2019-01-16T08:10:31.528Z,44.50
2019-01-16T08:11:28.530Z,44.81
2019-01-16T08:12:25.625Z,44.80
2019-01-16T08:13:22.656Z,44.75
2019-01-16T08:14:19.733Z,44.77
2019-01-16T08:15:16.836Z,44.76
2019-01-16T08:16:13.860Z,44.74
2019-01-16T08:17:10.926Z,44.75
2019-01-16T08:18:08.030Z,44.74
2019-01-16T08:19:05.145Z,44.56
2019-01-16T08:20:02.120Z,44.74
2019-01-16T08:20:59.182Z,44.75
2019-01-16T08:21:56.243Z,44.73
2019-01-16T08:22:53.351Z,45.11
2019-01-16T08:23:50.397Z,44.95
2019-01-16T08:24:47.449Z,44.59
2019-01-16T08:25:44.554Z,44.79
2019-01-16T08:26:41.582Z,44.80
2019-01-16T08:27:38.681Z,45.16
2019-01-16T08:28:35.718Z,44.85
2019-01-16T08:29:32.774Z,44.88
2019-01-16T08:30:29.855Z,44.84
2019-01-16T08:31:26.938Z,45.23
2019-01-16T08:32:23.997Z,45.45
2019-01-16T08:33:21.045Z,44.53
2019-01-16T08:34:18.118Z,45.12
2019-01-16T08:35:15.169Z,44.93
2019-01-16T08:36:12.241Z,44.93
2019-01-16T08:37:09.321Z,44.95
2019-01-16T08:38:06.405Z,44.94
2019-01-16T08:39:03.462Z,44.94
2019-01-16T08:40:00.535Z,44.94
2019-01-16T08:40:57.573Z,45.20
2019-01-16T08:41:54.630Z,44.61
2019-01-16T08:42:51.751Z,44.61
2019-01-16T08:43:48.760Z,45.25
2019-01-16T08:44:45.895Z,44.93
2019-01-16T08:45:42.944Z,45.51
2019-01-16T08:46:39.973Z,44.92
2019-01-16T08:47:37.069Z,44.92
2019-01-16T08:48:34.096Z,44.70
2019-01-16T08:49:31.174Z,44.91
2019-01-16T08:50:32.546Z,44.91
2019-01-16T08:51:25.334Z,44.70
2019-01-16T08:52:22.629Z,45.55
2019-01-16T08:53:20.319Z,44.90
2019-01-16T08:54:16.496Z,44.77
2019-01-16T08:55:13.632Z,44.23
2019-01-16T08:56:10.676Z,44.89
2019-01-16T08:57:07.693Z,44.44
2019-01-16T08:58:04.758Z,44.87
2019-01-16T08:59:02.883Z,44.87
2019-01-16T08:59:58.926Z,44.84
2019-01-16T09:00:55.957Z,44.69
2019-01-16T09:01:53.051Z,45.17
2019-01-16T09:02:50.089Z,44.48
2019-01-16T09:03:47.157Z,44.84
2019-01-16T09:04:44.212Z,44.84
2019-01-16T09:05:41.299Z,44.82
2019-01-16T09:06:38.353Z,44.83
2019-01-16T09:07:35.472Z,44.15
2019-01-16T09:08:32.515Z,44.79
2019-01-16T09:09:29.548Z,44.78
2019-01-16T09:10:26.616Z,44.78
2019-01-16T09:11:23.689Z,44.94
2019-01-16T09:12:20.743Z,44.99
2019-01-16T09:13:17.805Z,44.72
2019-01-16T09:14:14.884Z,45.06
2019-01-16T09:15:11.945Z,44.70
2019-01-16T09:16:09.014Z,44.61
2019-01-16T09:17:06.155Z,44.66
2019-01-16T09:18:03.156Z,44.98
2019-01-16T09:19:01.031Z,44.63
2019-01-16T09:19:57.273Z,44.84
2019-01-16T09:20:54.349Z,44.62
2019-01-16T09:21:51.447Z,44.60
2019-01-16T09:22:48.478Z,44.60
2019-01-16T09:23:45.534Z,44.59
2019-01-16T09:24:42.618Z,44.11
2019-01-16T09:25:39.669Z,43.89
2019-01-16T09:26:36.765Z,44.54
2019-01-16T09:27:33.801Z,44.55
2019-01-16T09:28:30.904Z,44.54
2019-01-16T09:29:27.931Z,44.79
2019-01-16T09:30:25.033Z,45.19
2019-01-16T09:31:22.125Z,44.50
2019-01-16T09:32:19.138Z,44.49
2019-01-16T09:33:16.201Z,44.48
2019-01-16T09:34:13.324Z,44.57
2019-01-16T09:35:10.324Z,44.45
2019-01-16T09:36:07.408Z,44.46
2019-01-16T09:37:04.728Z,44.24
2019-01-16T09:38:01.547Z,44.44
2019-01-16T09:38:58.621Z,44.45
2019-01-16T09:39:55.660Z,44.49
2019-01-16T09:40:52.876Z,44.63
2019-01-16T09:41:49.787Z,43.48
2019-01-16T09:42:46.921Z,44.37
2019-01-16T09:43:43.917Z,44.38
2019-01-16T09:44:40.995Z,44.37
2019-01-16T09:45:39.062Z,44.34
2019-01-16T09:46:35.125Z,44.51
2019-01-16T09:47:32.190Z,44.34
2019-01-16T09:48:29.269Z,44.35
2019-01-16T09:49:26.308Z,44.34
2019-01-16T09:50:23.386Z,44.33
2019-01-16T09:51:20.440Z,43.96
2019-01-16T09:52:17.512Z,44.32
2019-01-16T09:53:14.647Z,44.32
2019-01-16T09:54:11.702Z,44.31
2019-01-16T09:55:08.716Z,44.29
2019-01-16T09:56:05.831Z,44.07
2019-01-16T09:57:02.863Z,44.63
2019-01-16T09:57:59.951Z,43.50
2019-01-16T09:58:56.969Z,44.30
2019-01-16T09:59:54.037Z,44.29
2019-01-16T10:00:51.329Z,44.31
2019-01-16T10:01:48.182Z,44.06
2019-01-16T10:02:45.256Z,44.29
2019-01-16T10:03:42.331Z,44.29
2019-01-16T10:04:39.368Z,44.27
2019-01-16T10:05:36.438Z,44.27
2019-01-16T10:06:33.502Z,44.20
2019-01-16T10:07:30.591Z,44.26
2019-01-16T10:08:27.697Z,44.33
2019-01-16T10:09:24.707Z,44.74
2019-01-16T10:10:21.771Z,44.24
2019-01-16T10:11:18.821Z,44.21
2019-01-16T10:12:15.900Z,44.25
2019-01-16T10:13:12.978Z,44.25
2019-01-16T10:14:10.035Z,44.27
2019-01-16T10:15:07.100Z,44.25
2019-01-16T10:16:04.166Z,44.27
2019-01-16T10:17:01.243Z,44.29
2019-01-16T10:17:58.300Z,44.28
2019-01-16T10:18:56.389Z,44.74
2019-01-16T10:19:52.474Z,44.30
2019-01-16T10:20:55.536Z,44.30
2019-01-16T10:21:46.590Z,44.30
2019-01-16T10:22:43.628Z,44.29
2019-01-16T10:23:40.705Z,44.29
2019-01-16T10:24:37.753Z,44.29
2019-01-16T10:25:34.831Z,44.60
2019-01-16T10:26:32.892Z,44.32
2019-01-16T10:27:28.980Z,44.29
2019-01-16T10:28:26.033Z,44.30
2019-01-16T10:29:23.141Z,44.79
2019-01-16T10:30:20.173Z,44.33
2019-01-16T10:31:17.216Z,44.32
2019-01-16T10:32:14.285Z,44.32
2019-01-16T10:33:11.348Z,44.31
2019-01-16T10:34:08.725Z,44.51
2019-01-16T10:35:05.476Z,44.30
2019-01-16T10:36:02.741Z,44.31
2019-01-16T10:37:00.616Z,44.30
2019-01-16T10:37:56.677Z,43.75
2019-01-16T10:38:53.755Z,44.30
2019-01-16T10:39:50.842Z,44.05
2019-01-16T10:40:47.872Z,44.31
2019-01-16T10:41:44.986Z,44.12
2019-01-16T10:42:42.026Z,43.98
2019-01-16T10:43:39.079Z,43.92
2019-01-16T10:44:36.176Z,44.67
2019-01-16T10:45:33.223Z,44.31
2019-01-16T10:46:30.275Z,44.13
2019-01-16T10:47:27.338Z,44.32
2019-01-16T10:48:24.435Z,44.33
2019-01-16T10:49:21.493Z,44.34
2019-01-16T10:50:18.632Z,44.34
2019-01-16T10:51:15.602Z,44.34
2019-01-16T10:52:12.658Z,44.25
2019-01-16T10:53:09.736Z,44.34
2019-01-16T10:54:06.809Z,44.33
2019-01-16T10:55:03.878Z,44.34
2019-01-16T10:56:00.926Z,44.35
2019-01-16T10:56:57.991Z,43.45
2019-01-16T10:57:55.087Z,44.37
2019-01-16T10:58:52.131Z,44.31
2019-01-16T10:59:49.220Z,44.37
2019-01-16T11:00:46.263Z,44.42
2019-01-16T11:01:43.320Z,44.38
2019-01-16T11:02:40.388Z,44.31
2019-01-16T11:03:37.466Z,44.36
2019-01-16T11:04:35.523Z,44.32
2019-01-16T11:05:31.626Z,44.31
2019-01-16T11:06:28.660Z,44.36
2019-01-16T11:07:25.748Z,44.46
2019-01-16T11:08:22.788Z,44.52
2019-01-16T11:09:19.858Z,44.38
2019-01-16T11:10:16.932Z,44.36
2019-01-16T11:11:16.142Z,44.37
2019-01-16T11:12:11.067Z,44.36
2019-01-16T11:13:08.149Z,44.36
2019-01-16T11:14:05.205Z,44.35
2019-01-16T11:15:02.267Z,43.92
2019-01-16T11:15:59.317Z,44.36
2019-01-16T11:16:56.804Z,44.24
2019-01-16T11:17:53.597Z,44.34
2019-01-16T11:18:50.509Z,44.13
2019-01-16T11:19:47.587Z,44.33
2019-01-16T11:20:45.666Z,44.30
2019-01-16T11:21:41.799Z,44.35
2019-01-16T11:22:38.801Z,44.34
2019-01-16T11:23:35.860Z,44.31
2019-01-16T11:24:32.906Z,43.51
2019-01-16T11:25:29.968Z,43.86
2019-01-16T11:26:27.049Z,44.31
2019-01-16T11:27:24.107Z,44.32
2019-01-16T11:28:21.166Z,43.66
2019-01-16T11:29:18.263Z,44.34
2019-01-16T11:30:15.326Z,44.07
2019-01-16T11:31:12.427Z,44.33
2019-01-16T11:32:09.452Z,44.33
2019-01-16T11:33:06.497Z,44.32
2019-01-16T11:34:03.579Z,43.92
2019-01-16T11:35:00.660Z,44.28
2019-01-16T11:35:57.694Z,44.24
2019-01-16T11:36:54.817Z,43.99
2019-01-16T11:37:51.834Z,44.17
2019-01-16T11:38:49.019Z,44.15
2019-01-16T11:39:45.977Z,44.82
2019-01-16T11:40:43.097Z,43.70
2019-01-16T11:41:40.093Z,43.85
2019-01-16T11:42:37.173Z,44.07
2019-01-16T11:43:34.234Z,43.97
2019-01-16T11:44:31.301Z,44.04
2019-01-16T11:45:28.379Z,44.05
2019-01-16T11:46:25.445Z,44.03
2019-01-16T11:47:22.514Z,43.99
2019-01-16T11:48:19.561Z,44.02
2019-01-16T11:49:16.620Z,44.00
2019-01-16T11:50:13.710Z,43.63
2019-01-16T11:51:10.805Z,44.01
2019-01-16T11:52:07.888Z,44.00
2019-01-16T11:53:04.915Z,43.99
2019-01-16T11:54:01.978Z,43.97
2019-01-16T11:54:59.032Z,43.96
2019-01-16T11:55:56.083Z,43.95
2019-01-16T11:56:53.145Z,43.81
2019-01-16T11:57:50.227Z,43.93
2019-01-16T11:58:47.283Z,43.82
2019-01-16T11:59:44.344Z,43.93
2019-01-16T12:00:41.413Z,43.87
2019-01-16T12:01:38.609Z,43.93
2019-01-16T12:02:38.595Z,43.87
2019-01-16T12:03:32.617Z,43.39
2019-01-16T12:04:29.687Z,43.87
2019-01-16T12:05:26.739Z,43.86
2019-01-16T12:06:23.867Z,43.41
2019-01-16T12:07:20.905Z,43.87
2019-01-16T12:08:17.946Z,44.12
2019-01-16T12:09:15.015Z,43.87
2019-01-16T12:10:12.377Z,43.87
2019-01-16T12:11:09.135Z,43.86
2019-01-16T12:12:06.206Z,44.49
2019-01-16T12:13:04.272Z,43.87
2019-01-16T12:14:00.343Z,43.91
2019-01-16T12:14:57.401Z,43.93
2019-01-16T12:15:54.628Z,43.98